createdAt,value
2022-09-15T00:00:31.910Z,0
2022-09-15T00:01:32.105Z,0
2022-09-15T00:02:32.594Z,0
2022-09-15T00:03:33.207Z,0
2022-09-15T00:04:33.351Z,0
2022-09-15T00:05:33.518Z,0
2022-09-15T00:06:33.665Z,0
2022-09-15T00:07:33.790Z,0
2022-09-15T00:08:33.921Z,0
2022-09-15T00:09:34.041Z,0
2022-09-15T00:10:34.157Z,0
2022-09-15T00:11:34.287Z,0
2022-09-15T00:12:34.428Z,0
2022-09-15T00:13:34.565Z,0
2022-09-15T00:14:34.706Z,0
2022-09-15T00:15:34.824Z,0
2022-09-15T00:16:35.035Z,0
2022-09-15T00:17:35.389Z,0
2022-09-15T00:18:35.543Z,0
2022-09-15T00:19:35.667Z,0
2022-09-15T00:20:35.781Z,0
2022-09-15T00:21:35.896Z,0
2022-09-15T00:22:36.008Z,0
2022-09-15T00:23:36.128Z,0
2022-09-15T00:24:36.242Z,0
2022-09-15T00:25:36.366Z,0
2022-09-15T00:26:36.487Z,0
2022-09-15T00:27:36.601Z,0
2022-09-15T00:28:36.733Z,0
2022-09-15T00:29:36.850Z,0
2022-09-15T00:30:37.031Z,0
2022-09-15T00:31:37.288Z,0
2022-09-15T00:32:37.401Z,0
2022-09-15T00:33:37.519Z,0
2022-09-15T00:34:37.634Z,0
2022-09-15T00:35:37.758Z,0
2022-09-15T00:36:37.883Z,0
2022-09-15T00:37:38.004Z,0
2022-09-15T00:38:38.140Z,0
2022-09-15T00:39:38.281Z,0
2022-09-15T00:40:38.416Z,0
2022-09-15T00:41:38.596Z,0
2022-09-15T00:42:38.772Z,0
2022-09-15T00:43:38.912Z,0
2022-09-15T00:44:39.076Z,0
2022-09-15T00:45:39.270Z,0
2022-09-15T00:46:39.676Z,0
2022-09-15T00:47:39.799Z,0
2022-09-15T00:48:39.905Z,0
2022-09-15T00:49:40.032Z,0
2022-09-15T00:50:40.178Z,0
2022-09-15T00:51:40.328Z,0
2022-09-15T00:52:40.465Z,0
2022-09-15T00:53:40.645Z,0
2022-09-15T00:54:40.868Z,0
2022-09-15T00:55:40.980Z,0
2022-09-15T00:56:41.169Z,0
2022-09-15T00:57:41.295Z,0
2022-09-15T00:58:41.424Z,0
2022-09-15T00:59:41.546Z,0
2022-09-15T01:00:41.667Z,0
2022-09-15T01:01:41.926Z,0
2022-09-15T01:02:42.657Z,0
2022-09-15T01:03:42.970Z,0
2022-09-15T01:04:43.124Z,0
2022-09-15T01:05:43.265Z,0
2022-09-15T01:06:43.414Z,0
2022-09-15T01:07:43.574Z,0
2022-09-15T01:08:43.706Z,0
2022-09-15T01:09:43.932Z,0
2022-09-15T01:10:44.055Z,0
2022-09-15T01:11:44.169Z,0
2022-09-15T01:12:44.282Z,0
2022-09-15T01:13:44.402Z,0
2022-09-15T01:14:44.528Z,0
2022-09-15T01:15:44.642Z,0
2022-09-15T01:16:44.788Z,0
2022-09-15T01:17:45.087Z,0
2022-09-15T01:18:45.202Z,0
2022-09-15T01:19:45.319Z,0
2022-09-15T01:20:45.433Z,0
2022-09-15T01:21:45.543Z,0
2022-09-15T01:22:45.657Z,0
2022-09-15T01:23:45.768Z,0
2022-09-15T01:24:45.890Z,0
2022-09-15T01:25:46.016Z,0
2022-09-15T01:26:46.135Z,0
2022-09-15T01:27:46.256Z,0
2022-09-15T01:28:46.365Z,0
2022-09-15T01:29:46.475Z,0
2022-09-15T01:30:46.592Z,0
2022-09-15T01:31:46.761Z,0
2022-09-15T01:32:47.141Z,0
2022-09-15T01:33:47.480Z,0
2022-09-15T01:34:47.605Z,0
2022-09-15T01:35:47.721Z,0
2022-09-15T01:36:47.837Z,0
2022-09-15T01:37:47.952Z,0
2022-09-15T01:38:48.073Z,0
2022-09-15T01:39:48.252Z,0
2022-09-15T01:40:48.491Z,0
2022-09-15T01:41:48.608Z,0
2022-09-15T01:42:48.725Z,0
2022-09-15T01:43:48.839Z,0
2022-09-15T01:44:48.951Z,0
2022-09-15T01:45:49.139Z,0
2022-09-15T01:46:49.420Z,0
2022-09-15T01:47:49.540Z,0
2022-09-15T01:48:49.662Z,0
2022-09-15T01:49:49.770Z,0
2022-09-15T01:50:49.876Z,0
2022-09-15T01:51:49.999Z,0
2022-09-15T01:52:50.107Z,0
2022-09-15T01:53:50.262Z,0
2022-09-15T01:54:50.665Z,0
2022-09-15T01:55:50.781Z,0
2022-09-15T01:56:50.896Z,0
2022-09-15T01:57:51.014Z,0
2022-09-15T01:58:51.123Z,0
2022-09-15T01:59:51.245Z,0
2022-09-15T02:00:51.406Z,0
2022-09-15T02:01:51.758Z,0
2022-09-15T02:02:52.292Z,0
2022-09-15T02:03:52.405Z,0
2022-09-15T02:04:52.517Z,0
2022-09-15T02:05:52.633Z,0
2022-09-15T02:06:52.747Z,0
2022-09-15T02:07:52.857Z,0
2022-09-15T02:08:52.986Z,0
2022-09-15T02:09:53.119Z,0
2022-09-15T02:10:53.233Z,0
2022-09-15T02:11:53.351Z,0
2022-09-15T02:12:53.459Z,0
2022-09-15T02:13:53.566Z,0
2022-09-15T02:14:53.679Z,0
2022-09-15T02:15:53.787Z,0
2022-09-15T02:16:53.982Z,0
2022-09-15T02:17:54.481Z,0
2022-09-15T02:18:54.599Z,0
2022-09-15T02:19:54.715Z,0
2022-09-15T02:20:54.831Z,0
2022-09-15T02:21:54.950Z,0
2022-09-15T02:22:55.062Z,0
2022-09-15T02:23:55.191Z,0
2022-09-15T02:24:55.308Z,0
2022-09-15T02:25:55.430Z,0
2022-09-15T02:26:55.543Z,0
2022-09-15T02:27:55.665Z,0
2022-09-15T02:28:55.777Z,0
2022-09-15T02:29:55.892Z,0
2022-09-15T02:30:56.018Z,0
2022-09-15T02:31:56.224Z,0
2022-09-15T02:32:56.666Z,0
2022-09-15T02:33:56.785Z,0
2022-09-15T02:34:56.899Z,0
2022-09-15T02:35:57.019Z,0
2022-09-15T02:36:57.132Z,0
2022-09-15T02:37:57.246Z,0
2022-09-15T02:38:57.357Z,0
2022-09-15T02:39:57.523Z,0
2022-09-15T02:40:57.850Z,0
2022-09-15T02:41:57.963Z,0
2022-09-15T02:42:58.081Z,0
2022-09-15T02:43:58.196Z,0
2022-09-15T02:44:58.312Z,0
2022-09-15T02:45:58.450Z,0
2022-09-15T02:46:58.718Z,0
2022-09-15T02:47:58.838Z,0
2022-09-15T02:48:58.958Z,0
2022-09-15T02:49:59.074Z,0
2022-09-15T02:50:59.187Z,0
2022-09-15T02:51:59.301Z,0
2022-09-15T02:52:59.418Z,0
2022-09-15T02:53:59.532Z,0
2022-09-15T02:54:59.652Z,0
2022-09-15T02:55:59.764Z,0
2022-09-15T02:56:59.892Z,0
2022-09-15T02:58:00.013Z,0
2022-09-15T02:59:00.221Z,0
2022-09-15T03:00:00.336Z,0
2022-09-15T03:01:00.530Z,0
2022-09-15T03:02:00.831Z,0
2022-09-15T03:03:01.093Z,0
2022-09-15T03:04:01.209Z,0
2022-09-15T03:05:01.323Z,0
2022-09-15T03:06:01.441Z,0
2022-09-15T03:07:01.560Z,0
2022-09-15T03:08:01.675Z,0
2022-09-15T03:09:01.786Z,0
2022-09-15T03:10:01.903Z,0
2022-09-15T03:11:02.013Z,0
2022-09-15T03:12:02.141Z,0
2022-09-15T03:13:02.258Z,0
2022-09-15T03:14:02.374Z,0
2022-09-15T03:15:02.488Z,0
2022-09-15T03:16:02.635Z,0
2022-09-15T03:17:02.921Z,0
2022-09-15T03:18:03.036Z,0
2022-09-15T03:19:03.166Z,0
2022-09-15T03:20:03.276Z,0
2022-09-15T03:21:03.415Z,0
2022-09-15T03:22:03.539Z,0
2022-09-15T03:23:03.767Z,0
2022-09-15T03:24:03.878Z,0
2022-09-15T03:25:03.982Z,0
2022-09-15T03:26:04.095Z,0
2022-09-15T03:27:04.215Z,0
2022-09-15T03:28:04.337Z,0
2022-09-15T03:29:04.454Z,0
2022-09-15T03:30:04.566Z,0
2022-09-15T03:31:04.726Z,0
2022-09-15T03:32:05.036Z,0
2022-09-15T03:33:05.148Z,0
2022-09-15T03:34:05.261Z,0
2022-09-15T03:35:05.375Z,0
2022-09-15T03:36:05.486Z,0
2022-09-15T03:37:05.599Z,0
2022-09-15T03:38:05.715Z,0
2022-09-15T03:39:05.837Z,0
2022-09-15T03:40:05.975Z,0
2022-09-15T03:41:06.267Z,0
2022-09-15T03:42:06.385Z,0
2022-09-15T03:43:06.504Z,0
2022-09-15T03:44:06.622Z,0
2022-09-15T03:45:06.735Z,0
2022-09-15T03:46:06.953Z,0
2022-09-15T03:47:07.351Z,0
2022-09-15T03:48:07.471Z,0
2022-09-15T03:49:07.590Z,0
2022-09-15T03:50:07.700Z,0
2022-09-15T03:51:07.814Z,0
2022-09-15T03:52:07.930Z,0
2022-09-15T03:53:08.044Z,0
2022-09-15T03:54:08.168Z,0
2022-09-15T03:55:08.281Z,0
2022-09-15T03:56:08.412Z,0
2022-09-15T03:57:08.523Z,0
2022-09-15T03:58:08.645Z,0
2022-09-15T03:59:08.778Z,0
2022-09-15T04:00:08.892Z,0
2022-09-15T04:01:09.064Z,0
2022-09-15T04:02:09.640Z,0
2022-09-15T04:03:09.930Z,0
2022-09-15T04:04:10.053Z,0
2022-09-15T04:05:10.178Z,0
2022-09-15T04:06:10.282Z,0
2022-09-15T04:07:10.405Z,0
2022-09-15T04:08:10.517Z,0
2022-09-15T04:09:10.629Z,0
2022-09-15T04:10:10.735Z,0
2022-09-15T04:11:10.859Z,0
2022-09-15T04:12:10.971Z,0
2022-09-15T04:13:11.094Z,0
2022-09-15T04:14:11.212Z,0
2022-09-15T04:15:11.323Z,0
2022-09-15T04:16:11.525Z,0
2022-09-15T04:17:11.892Z,0
2022-09-15T04:18:12.015Z,0
2022-09-15T04:19:12.132Z,0
2022-09-15T04:20:12.248Z,0
2022-09-15T04:21:12.362Z,0
2022-09-15T04:22:17.086Z,0
2022-09-15T04:23:18.212Z,0
2022-09-15T04:24:18.329Z,0
2022-09-15T04:25:18.439Z,0
2022-09-15T04:26:18.557Z,0
2022-09-15T04:27:18.691Z,0
2022-09-15T04:28:18.805Z,0
2022-09-15T04:29:18.917Z,0
2022-09-15T04:30:19.029Z,0
2022-09-15T04:31:19.204Z,0
2022-09-15T04:32:19.492Z,0
2022-09-15T04:33:19.604Z,0
2022-09-15T04:34:19.717Z,0
2022-09-15T04:35:19.829Z,0
2022-09-15T04:36:19.941Z,0
2022-09-15T04:37:20.061Z,0
2022-09-15T04:38:20.169Z,0
2022-09-15T04:39:20.280Z,0
2022-09-15T04:40:20.494Z,0
2022-09-15T04:41:20.885Z,0
2022-09-15T04:42:21.015Z,0
2022-09-15T04:43:21.125Z,0
2022-09-15T04:44:21.237Z,0
2022-09-15T04:45:21.347Z,2
2022-09-15T04:46:21.544Z,3
2022-09-15T04:47:21.886Z,4
2022-09-15T04:48:22.001Z,6
2022-09-15T04:49:22.126Z,7
2022-09-15T04:50:22.238Z,8
2022-09-15T04:51:22.347Z,10
2022-09-15T04:52:22.476Z,11
2022-09-15T04:53:22.609Z,13
2022-09-15T04:54:22.722Z,15
2022-09-15T04:55:22.837Z,17
2022-09-15T04:56:22.968Z,19
2022-09-15T04:57:23.083Z,21
2022-09-15T04:58:23.191Z,24
2022-09-15T04:59:23.300Z,27
2022-09-15T05:00:23.418Z,33
2022-09-15T05:01:23.597Z,37
2022-09-15T05:02:24.130Z,41
2022-09-15T05:03:24.429Z,46
2022-09-15T05:04:24.542Z,52
2022-09-15T05:05:24.661Z,58
2022-09-15T05:06:24.784Z,64
2022-09-15T05:07:24.902Z,72
2022-09-15T05:08:25.014Z,90
2022-09-15T05:09:25.127Z,98.96
2022-09-15T05:10:25.244Z,110
2022-09-15T05:11:25.368Z,130
2022-09-15T05:12:25.478Z,150
2022-09-15T05:13:25.597Z,150
2022-09-15T05:14:25.707Z,169.92
2022-09-15T05:15:25.834Z,189.92
2022-09-15T05:16:26.016Z,209.92
2022-09-15T05:17:26.896Z,209.92
2022-09-15T05:18:27.090Z,209.92
2022-09-15T05:19:27.200Z,240
2022-09-15T05:20:27.316Z,240
2022-09-15T05:21:27.439Z,269.92
2022-09-15T05:22:27.549Z,300
2022-09-15T05:23:27.662Z,300
2022-09-15T05:24:27.776Z,329.92
2022-09-15T05:25:27.888Z,329.92
2022-09-15T05:26:27.997Z,329.92
2022-09-15T05:27:28.123Z,329.92
2022-09-15T05:28:28.234Z,369.92
2022-09-15T05:29:28.348Z,369.92
2022-09-15T05:30:38.875Z,369.92
2022-09-15T05:31:44.871Z,369.92
2022-09-15T05:32:45.149Z,369.92
2022-09-15T05:33:45.271Z,459.84
2022-09-15T05:34:45.385Z,459.84
2022-09-15T05:35:45.499Z,459.84
2022-09-15T05:36:45.613Z,509.76
2022-09-15T05:37:45.724Z,509.76
2022-09-15T05:38:45.829Z,509.76
2022-09-15T05:39:46.032Z,509.76
2022-09-15T05:40:46.239Z,569.92
2022-09-15T05:41:46.351Z,569.92
2022-09-15T05:42:46.470Z,569.92
2022-09-15T05:43:46.581Z,569.92
2022-09-15T05:44:46.695Z,629.76
2022-09-15T05:45:46.812Z,629.76
2022-09-15T05:46:46.995Z,629.76
2022-09-15T05:47:47.223Z,629.76
2022-09-15T05:48:47.350Z,699.52
2022-09-15T05:49:47.475Z,699.52
2022-09-15T05:50:47.594Z,699.52
2022-09-15T05:51:47.705Z,699.52
2022-09-15T05:52:47.824Z,699.52
2022-09-15T05:53:47.937Z,699.52
2022-09-15T05:54:48.047Z,699.52
2022-09-15T05:55:48.166Z,769.92
2022-09-15T05:56:48.280Z,769.92
2022-09-15T05:57:48.396Z,769.92
2022-09-15T05:58:48.520Z,769.92
2022-09-15T05:59:48.641Z,769.92
2022-09-15T06:00:48.818Z,769.92
2022-09-15T06:01:48.997Z,769.92
2022-09-15T06:02:49.347Z,769.92
2022-09-15T06:03:49.603Z,769.92
2022-09-15T06:04:49.718Z,849.92
2022-09-15T06:05:49.838Z,849.92
2022-09-15T06:06:49.953Z,849.92
2022-09-15T06:07:50.070Z,849.92
2022-09-15T06:08:54.135Z,849.92
2022-09-15T06:09:59.576Z,849.92
2022-09-15T06:10:59.694Z,849.92
2022-09-15T06:11:59.807Z,849.92
2022-09-15T06:12:59.923Z,849.92
2022-09-15T06:14:00.053Z,849.92
2022-09-15T06:15:00.200Z,889.6
2022-09-15T06:16:00.408Z,889.6
2022-09-15T06:17:00.637Z,889.6
2022-09-15T06:18:00.747Z,800
2022-09-15T06:19:00.861Z,800
2022-09-15T06:20:01.007Z,800
2022-09-15T06:21:01.113Z,800
2022-09-15T06:22:01.226Z,800
2022-09-15T06:23:01.341Z,880
2022-09-15T06:24:01.457Z,880
2022-09-15T06:25:01.584Z,880
2022-09-15T06:26:01.700Z,880
2022-09-15T06:27:01.816Z,969.6
2022-09-15T06:28:01.932Z,1079.68
2022-09-15T06:29:02.052Z,1079.68
2022-09-15T06:30:02.183Z,1200
2022-09-15T06:31:02.297Z,1319.68
2022-09-15T06:32:02.505Z,1319.68
2022-09-15T06:33:03.099Z,1319.68
2022-09-15T06:34:03.211Z,1459.2
2022-09-15T06:35:03.321Z,1459.2
2022-09-15T06:36:03.433Z,1459.2
2022-09-15T06:37:03.550Z,1459.2
2022-09-15T06:38:03.667Z,1459.2
2022-09-15T06:39:03.779Z,1619.2
2022-09-15T06:40:03.965Z,1619.2
2022-09-15T06:41:04.369Z,1619.2
2022-09-15T06:42:05.764Z,1799.68
2022-09-15T06:43:06.112Z,1978.88
2022-09-15T06:44:06.230Z,1978.88
2022-09-15T06:45:06.344Z,2199.04
2022-09-15T06:46:06.487Z,2199.04
2022-09-15T06:47:06.706Z,2199.04
2022-09-15T06:48:23.221Z,2199.04
2022-09-15T06:49:25.483Z,2199.04
2022-09-15T06:50:25.611Z,2439.68
2022-09-15T06:51:25.727Z,2739.2
2022-09-15T06:52:25.839Z,3059.2
2022-09-15T06:53:25.949Z,3059.2
2022-09-15T06:54:26.061Z,3059.2
2022-09-15T06:55:26.203Z,3059.2
2022-09-15T06:56:26.320Z,3059.2
2022-09-15T06:57:26.438Z,3059.2
2022-09-15T06:58:26.563Z,3059.2
2022-09-15T06:59:26.701Z,3059.2
2022-09-15T07:00:26.813Z,3059.2
2022-09-15T07:01:26.924Z,2718.72
2022-09-15T07:02:27.129Z,2718.72
2022-09-15T07:03:27.739Z,2419.2
2022-09-15T07:04:28.222Z,2419.2
2022-09-15T07:05:28.344Z,2419.2
2022-09-15T07:06:28.454Z,2419.2
2022-09-15T07:07:28.570Z,2159.36
2022-09-15T07:08:28.682Z,1939.2
2022-09-15T07:09:28.794Z,1739.52
2022-09-15T07:10:28.906Z,1559.04
2022-09-15T07:11:29.022Z,1559.04
2022-09-15T07:12:29.148Z,1559.04
2022-09-15T07:13:29.316Z,1559.04
2022-09-15T07:14:29.438Z,1559.04
2022-09-15T07:15:29.553Z,1719.04
2022-09-15T07:16:29.875Z,1719.04
2022-09-15T07:17:30.340Z,1719.04
2022-09-15T07:18:30.449Z,1719.04
2022-09-15T07:19:30.564Z,1899.52
2022-09-15T07:20:30.680Z,2119.68
2022-09-15T07:21:30.804Z,2119.68
2022-09-15T07:22:30.915Z,2119.68
2022-09-15T07:23:31.034Z,2119.68
2022-09-15T07:24:31.153Z,2119.68
2022-09-15T07:25:31.270Z,2119.68
2022-09-15T07:26:31.392Z,2119.68
2022-09-15T07:27:31.514Z,1899.52
2022-09-15T07:28:31.662Z,1699.84
2022-09-15T07:29:34.804Z,1699.84
2022-09-15T07:30:38.042Z,2080
2022-09-15T07:31:38.227Z,2080
2022-09-15T07:32:38.747Z,2319.36
2022-09-15T07:33:38.872Z,2319.36
2022-09-15T07:34:38.989Z,2319.36
2022-09-15T07:35:39.098Z,2319.36
2022-09-15T07:36:39.218Z,2319.36
2022-09-15T07:37:39.332Z,2319.36
2022-09-15T07:38:39.451Z,2319.36
2022-09-15T07:39:39.565Z,2319.36
2022-09-15T07:40:39.680Z,2319.36
2022-09-15T07:41:39.795Z,2319.36
2022-09-15T07:42:39.908Z,2219.52
2022-09-15T07:43:40.019Z,2219.52
2022-09-15T07:44:40.154Z,2219.52
2022-09-15T07:45:40.319Z,2219.52
2022-09-15T07:46:40.576Z,2479.36
2022-09-15T07:47:40.692Z,2739.2
2022-09-15T07:48:40.806Z,3038.72
2022-09-15T07:49:40.918Z,3379.2
2022-09-15T07:50:41.034Z,3737.6
2022-09-15T07:51:41.151Z,3737.6
2022-09-15T07:52:41.267Z,3737.6
2022-09-15T07:53:41.385Z,3737.6
2022-09-15T07:54:41.483Z,3317.76
2022-09-15T07:55:41.617Z,3317.76
2022-09-15T07:56:41.729Z,3317.76
2022-09-15T07:57:41.844Z,2979.84
2022-09-15T07:58:41.966Z,2979.84
2022-09-15T07:59:42.155Z,2979.84
2022-09-15T08:00:42.311Z,2979.84
2022-09-15T08:01:42.566Z,3299.84
2022-09-15T08:02:42.859Z,3299.84
2022-09-15T08:03:42.983Z,3299.84
2022-09-15T08:04:43.102Z,3637.76
2022-09-15T08:05:45.538Z,3637.76
2022-09-15T08:06:46.422Z,3637.76
2022-09-15T08:07:46.539Z,3637.76
2022-09-15T08:08:46.683Z,3637.76
2022-09-15T08:09:46.823Z,3637.76
2022-09-15T08:10:46.938Z,3637.76
2022-09-15T08:11:47.053Z,3637.76
2022-09-15T08:12:47.173Z,3637.76
2022-09-15T08:13:47.291Z,3637.76
2022-09-15T08:14:47.412Z,3799.04
2022-09-15T08:15:47.552Z,3799.04
2022-09-15T08:16:47.848Z,3799.04
2022-09-15T08:17:47.961Z,3799.04
2022-09-15T08:18:48.088Z,3799.04
2022-09-15T08:19:48.211Z,3799.04
2022-09-15T08:20:48.325Z,3799.04
2022-09-15T08:21:48.441Z,3799.04
2022-09-15T08:22:48.554Z,3799.04
2022-09-15T08:23:48.675Z,3799.04
2022-09-15T08:24:48.788Z,3499.52
2022-09-15T08:25:48.901Z,3499.52
2022-09-15T08:26:49.015Z,3499.52
2022-09-15T08:27:49.139Z,3499.52
2022-09-15T08:28:49.246Z,3499.52
2022-09-15T08:29:49.381Z,3499.52
2022-09-15T08:30:49.621Z,3499.52
2022-09-15T08:31:49.953Z,3499.52
2022-09-15T08:32:50.359Z,3857.92
2022-09-15T08:33:50.502Z,4298.24
2022-09-15T08:34:50.619Z,4759.04
2022-09-15T08:35:50.735Z,4759.04
2022-09-15T08:36:50.851Z,5258.24
2022-09-15T08:37:50.962Z,5258.24
2022-09-15T08:38:51.078Z,5258.24
2022-09-15T08:39:51.234Z,5258.24
2022-09-15T08:40:51.506Z,5258.24
2022-09-15T08:41:51.618Z,5258.24
2022-09-15T08:42:51.731Z,5258.24
2022-09-15T08:43:52.002Z,5836.8
2022-09-15T08:44:52.424Z,5836.8
2022-09-15T08:45:52.538Z,6517.76
2022-09-15T08:46:52.711Z,6517.76
2022-09-15T08:47:53.017Z,6517.76
2022-09-15T08:48:53.187Z,6517.76
2022-09-15T08:49:53.454Z,6517.76
2022-09-15T08:50:53.562Z,6517.76
2022-09-15T08:51:53.689Z,6517.76
2022-09-15T08:52:53.801Z,5857.28
2022-09-15T08:53:53.917Z,5857.28
2022-09-15T08:54:54.037Z,5857.28
2022-09-15T08:55:54.152Z,5857.28
2022-09-15T08:56:54.272Z,5258.24
2022-09-15T08:57:54.442Z,5258.24
2022-09-15T08:58:54.559Z,5258.24
2022-09-15T08:59:54.675Z,5258.24
2022-09-15T09:00:54.794Z,5258.24
2022-09-15T09:01:54.943Z,5258.24
2022-09-15T09:02:55.321Z,5258.24
2022-09-15T09:03:55.593Z,5258.24
2022-09-15T09:04:55.703Z,5258.24
2022-09-15T09:05:55.814Z,5258.24
2022-09-15T09:06:55.930Z,5795.84
2022-09-15T09:07:56.053Z,5795.84
2022-09-15T09:08:56.171Z,5795.84
2022-09-15T09:09:56.301Z,5795.84
2022-09-15T09:10:56.415Z,5795.84
2022-09-15T09:11:56.528Z,5795.84
2022-09-15T09:12:56.652Z,5795.84
2022-09-15T09:13:56.762Z,5795.84
2022-09-15T09:14:56.881Z,5795.84
2022-09-15T09:15:57.047Z,5795.84
2022-09-15T09:16:57.484Z,5836.8
2022-09-15T09:17:57.600Z,5836.8
2022-09-15T09:18:57.717Z,5836.8
2022-09-15T09:19:57.828Z,5836.8
2022-09-15T09:20:57.937Z,5158.4
2022-09-15T09:21:58.051Z,4638.72
2022-09-15T09:22:58.162Z,4638.72
2022-09-15T09:23:58.278Z,4638.72
2022-09-15T09:24:58.389Z,4119.04
2022-09-15T09:25:58.510Z,3699.2
2022-09-15T09:26:58.634Z,3317.76
2022-09-15T09:27:58.748Z,2979.84
2022-09-15T09:28:58.864Z,2979.84
2022-09-15T09:29:58.989Z,2979.84
2022-09-15T09:30:59.151Z,2659.84
2022-09-15T09:31:59.433Z,2379.52
2022-09-15T09:32:59.545Z,2119.68
2022-09-15T09:33:59.660Z,1899.52
2022-09-15T09:34:59.777Z,1899.52
2022-09-15T09:35:59.894Z,2739.2
2022-09-15T09:37:00.015Z,3898.88
2022-09-15T09:38:00.159Z,4879.36
2022-09-15T09:39:00.276Z,5376
2022-09-15T09:40:00.480Z,5376
2022-09-15T09:41:02.437Z,5376
2022-09-15T09:42:03.009Z,5376
2022-09-15T09:43:03.123Z,5376
2022-09-15T09:44:03.248Z,5376
2022-09-15T09:45:03.413Z,5376
2022-09-15T09:46:03.584Z,5376
2022-09-15T09:47:03.841Z,5376
2022-09-15T09:48:03.967Z,5376
2022-09-15T09:49:04.084Z,5137.92
2022-09-15T09:50:04.209Z,5137.92
2022-09-15T09:51:04.609Z,5137.92
2022-09-15T09:52:04.769Z,5137.92
2022-09-15T09:53:04.894Z,5137.92
2022-09-15T09:54:05.015Z,4618.24
2022-09-15T09:55:05.140Z,4618.24
2022-09-15T09:56:05.250Z,4618.24
2022-09-15T09:57:05.361Z,4618.24
2022-09-15T09:58:05.474Z,4618.24
2022-09-15T09:59:05.590Z,5137.92
2022-09-15T10:00:05.703Z,5137.92
2022-09-15T10:01:05.866Z,5137.92
2022-09-15T10:02:06.179Z,5137.92
2022-09-15T10:03:06.292Z,5137.92
2022-09-15T10:04:06.413Z,4538.88
2022-09-15T10:05:06.560Z,4057.6
2022-09-15T10:06:06.983Z,3637.76
2022-09-15T10:07:07.111Z,3637.76
2022-09-15T10:08:07.229Z,3637.76
2022-09-15T10:09:07.349Z,3637.76
2022-09-15T10:10:07.464Z,3637.76
2022-09-15T10:11:07.569Z,3637.76
2022-09-15T10:12:07.682Z,4039.68
2022-09-15T10:13:07.937Z,4497.92
2022-09-15T10:14:08.050Z,4497.92
2022-09-15T10:15:08.163Z,4979.2
2022-09-15T10:16:08.272Z,4979.2
2022-09-15T10:17:08.386Z,4979.2
2022-09-15T10:18:08.498Z,4979.2
2022-09-15T10:19:08.612Z,4979.2
2022-09-15T10:20:08.733Z,4979.2
2022-09-15T10:21:08.849Z,4979.2
2022-09-15T10:22:08.972Z,4979.2
2022-09-15T10:23:09.098Z,4979.2
2022-09-15T10:24:09.214Z,4979.2
2022-09-15T10:25:09.345Z,5099.52
2022-09-15T10:26:09.467Z,5616.64
2022-09-15T10:27:09.589Z,5616.64
2022-09-15T10:28:09.711Z,6236.16
2022-09-15T10:29:09.835Z,6876.16
2022-09-15T10:30:09.957Z,6876.16
2022-09-15T10:31:10.088Z,7639.04
2022-09-15T10:32:10.235Z,7639.04
2022-09-15T10:33:10.480Z,8478.72
2022-09-15T10:34:10.596Z,9338.88
2022-09-15T10:35:10.713Z,11591.68
2022-09-15T10:36:10.817Z,12994.56
2022-09-15T10:37:10.938Z,16199.68
2022-09-15T10:38:11.058Z,16199.68
2022-09-15T10:39:11.173Z,16199.68
2022-09-15T10:40:11.355Z,16199.68
2022-09-15T10:41:11.717Z,19998.72
2022-09-15T10:42:11.832Z,22384.64
2022-09-15T10:43:11.945Z,22384.64
2022-09-15T10:44:12.058Z,19793.92
2022-09-15T10:45:12.176Z,19793.92
2022-09-15T10:46:12.363Z,17797.12
2022-09-15T10:47:12.784Z,19793.92
2022-09-15T10:48:12.902Z,21995.52
2022-09-15T10:49:13.019Z,21995.52
2022-09-15T10:50:13.139Z,19793.92
2022-09-15T10:51:13.258Z,19793.92
2022-09-15T10:52:13.378Z,19793.92
2022-09-15T10:53:13.492Z,19793.92
2022-09-15T10:54:13.601Z,17797.12
2022-09-15T10:55:13.725Z,17797.12
2022-09-15T10:56:13.838Z,20797.44
2022-09-15T10:57:13.974Z,20797.44
2022-09-15T10:58:14.208Z,18595.84
2022-09-15T10:59:14.400Z,18595.84
2022-09-15T11:00:14.695Z,18595.84
2022-09-15T11:01:15.147Z,21790.72
2022-09-15T11:02:15.517Z,19394.56
2022-09-15T11:03:15.813Z,17397.76
2022-09-15T11:04:15.935Z,13998.08
2022-09-15T11:05:19.073Z,12595.2
2022-09-15T11:06:23.161Z,9999.36
2022-09-15T11:07:23.289Z,8816.64
2022-09-15T11:08:23.405Z,7915.52
2022-09-15T11:09:23.523Z,7040
2022-09-15T11:10:23.631Z,7040
2022-09-15T11:11:23.754Z,6318.08
2022-09-15T11:12:27.133Z,6318.08
2022-09-15T11:13:29.719Z,5678.08
2022-09-15T11:14:29.833Z,5678.08
2022-09-15T11:15:29.946Z,5678.08
2022-09-15T11:16:30.109Z,5678.08
2022-09-15T11:17:30.362Z,5678.08
2022-09-15T11:18:30.477Z,5678.08
2022-09-15T11:19:30.591Z,5678.08
2022-09-15T11:20:30.707Z,5678.08
2022-09-15T11:21:30.822Z,5678.08
2022-09-15T11:22:30.936Z,5678.08
2022-09-15T11:23:31.062Z,5698.56
2022-09-15T11:24:31.179Z,5698.56
2022-09-15T11:25:31.289Z,5698.56
2022-09-15T11:26:31.400Z,6297.6
2022-09-15T11:27:31.510Z,6937.6
2022-09-15T11:28:31.646Z,8437.76
2022-09-15T11:29:31.758Z,8437.76
2022-09-15T11:30:31.870Z,8437.76
2022-09-15T11:31:32.064Z,8437.76
2022-09-15T11:32:32.583Z,8437.76
2022-09-15T11:33:32.694Z,8437.76
2022-09-15T11:34:32.815Z,8437.76
2022-09-15T11:35:32.938Z,8437.76
2022-09-15T11:36:33.053Z,8437.76
2022-09-15T11:37:33.169Z,8437.76
2022-09-15T11:38:33.290Z,9159.68
2022-09-15T11:39:33.407Z,9159.68
2022-09-15T11:40:33.536Z,9159.68
2022-09-15T11:41:33.838Z,10199.04
2022-09-15T11:42:33.952Z,10199.04
2022-09-15T11:43:34.064Z,9036.8
2022-09-15T11:44:34.227Z,9036.8
2022-09-15T11:45:34.343Z,8058.88
2022-09-15T11:46:34.522Z,8058.88
2022-09-15T11:47:34.862Z,7198.72
2022-09-15T11:48:34.974Z,7198.72
2022-09-15T11:49:35.104Z,6456.32
2022-09-15T11:50:35.217Z,6456.32
2022-09-15T11:51:35.341Z,6456.32
2022-09-15T11:52:35.456Z,6456.32
2022-09-15T11:53:35.571Z,5775.36
2022-09-15T11:54:35.685Z,5775.36
2022-09-15T11:55:35.812Z,5775.36
2022-09-15T11:56:35.930Z,5775.36
2022-09-15T11:57:36.044Z,5775.36
2022-09-15T11:58:36.158Z,5775.36
2022-09-15T11:59:36.281Z,5775.36
2022-09-15T12:00:36.396Z,5775.36
2022-09-15T12:01:36.588Z,5775.36
2022-09-15T12:02:36.935Z,5775.36
2022-09-15T12:03:37.181Z,5836.8
2022-09-15T12:04:37.329Z,5836.8
2022-09-15T12:05:37.451Z,5836.8
2022-09-15T12:06:39.183Z,5836.8
2022-09-15T12:07:46.271Z,5836.8
2022-09-15T12:08:46.391Z,5836.8
2022-09-15T12:09:46.505Z,5836.8
2022-09-15T12:10:46.644Z,5158.4
2022-09-15T12:11:46.763Z,4638.72
2022-09-15T12:12:46.880Z,4638.72
2022-09-15T12:13:46.999Z,4160
2022-09-15T12:14:47.115Z,4160
2022-09-15T12:15:47.258Z,4160
2022-09-15T12:16:47.496Z,3737.6
2022-09-15T12:17:47.610Z,3737.6
2022-09-15T12:18:47.756Z,3358.72
2022-09-15T12:19:47.965Z,3018.24
2022-09-15T12:20:48.081Z,2698.24
2022-09-15T12:21:48.203Z,2698.24
2022-09-15T12:22:48.315Z,2698.24
2022-09-15T12:23:48.425Z,2698.24
2022-09-15T12:24:48.540Z,2698.24
2022-09-15T12:25:48.658Z,2997.76
2022-09-15T12:26:48.768Z,2997.76
2022-09-15T12:27:48.887Z,3338.24
2022-09-15T12:28:48.999Z,3699.2
2022-09-15T12:29:49.124Z,4119.04
2022-09-15T12:30:49.235Z,4638.72
2022-09-15T12:31:49.350Z,5199.36
2022-09-15T12:32:49.468Z,5775.36
2022-09-15T12:33:49.587Z,6379.52
2022-09-15T12:34:49.702Z,7096.32
2022-09-15T12:35:49.818Z,7895.04
2022-09-15T12:36:49.962Z,7895.04
2022-09-15T12:37:50.229Z,7895.04
2022-09-15T12:38:50.339Z,8796.16
2022-09-15T12:39:50.511Z,9779.2
2022-09-15T12:40:50.750Z,10792.96
2022-09-15T12:41:50.869Z,15790.08
2022-09-15T12:42:50.986Z,20398.08
2022-09-15T12:43:51.109Z,23183.36
2022-09-15T12:44:51.231Z,23183.36
2022-09-15T12:45:51.354Z,30597.12
2022-09-15T12:46:51.575Z,27197.44
2022-09-15T12:47:51.907Z,27197.44
2022-09-15T12:48:52.015Z,27197.44
2022-09-15T12:49:52.130Z,24391.68
2022-09-15T12:50:52.241Z,21381.12
2022-09-15T12:51:52.358Z,21381.12
2022-09-15T12:52:52.475Z,21381.12
2022-09-15T12:53:52.775Z,19200
2022-09-15T12:54:53.266Z,19200
2022-09-15T12:55:53.385Z,19200
2022-09-15T12:56:53.499Z,19200
2022-09-15T12:57:53.613Z,21381.12
2022-09-15T12:58:53.725Z,21381.12
2022-09-15T12:59:53.836Z,19200
2022-09-15T13:01:16.867Z,19200
2022-09-15T13:02:19.658Z,34385.92
2022-09-15T13:03:20.197Z,40796.16
2022-09-15T13:04:20.530Z,28385.28
2022-09-15T13:05:20.643Z,19998.72
2022-09-15T13:06:20.760Z,15994.88
2022-09-15T13:07:20.890Z,14397.44
2022-09-15T13:08:21.014Z,14397.44
2022-09-15T13:09:21.137Z,12800
2022-09-15T13:10:21.253Z,14397.44
2022-09-15T13:11:21.368Z,22179.84